Bei Facebook empfehlenBei Twitter postenGoogle plusPinterest

Das Wetter im Erzgebirge am 16.06.2016

Wetter und Klima am 16.06.2016 Holzhau im Erzgebirge (630m ü.NN)
Letzte gemessene Temperatur und Uhrzeit der Messung23:45:00 Uhr12.90 °C
Temperatur (Maximum / Höchstwert) und Uhrzeit der Messung12:30:00 Uhr22.50 °C
Temperatur (Minimum / Tiefstwert) und Uhrzeit der Messung03:30:005.70 °C
Errechneter Absolutwert der Temperaturschwankungen zwischen Tmin und Tmax des Tages16.80 K
Errechnete Tagesmitteltemperatur14.43333 °C
Gesamt - Niederschlag des Tages (in flüssiger Form)4.14 Liter / m²
Luftdruck (Maximum / Höchstwert) und Zeitpunkt der Messung13:30:00 Uhr1002.30 hPa
Luftdruck (Minimum / Tiefstwert) und Zeitpunkt der Messung23:15:00 Uhr999.40 hPa
Errechneter Absolutwert der Luftdruckschwankungen des Tages2.90 hPa
Höchste gemessene Windgeschwindigkeit und Uhrzeit der Messung22:30:00 Uhr183.60 km/h
Errechnete Windhäufigkeit in Relation zu den Messwerten des Tages1.04167 %
Niedrigste Windkühle (Windchill) und Zeitpunkt der Messung03:30:00 Uhr5.70 °C
Taupunkt (Maximum / Höchstwert) und Uhrzeit der Messung08:00:00 Uhr16.40 °C
Taupunkt (Minimum / Tiefstwert) und Uhrzeit der Messung03:30:004.50 °C
Anzahl der automatisch eingelesenen Messwerte 96

Detaillierte Wetter- und Klima- Messwerte für den 16.06.2016 in Holzhau im Erzgebirge (630m ü.NN)
ZeitTemperaturLuftdruckRel. LuftfeuchteWindWindrichtungWindchillTaupunktNiederschlag l/m²
23:45:0012.90 °C1000.10 hPa93.00 %11.80 °C4.14
23:30:0012.90 °C999.50 hPa93.00 %11.80 °C4.14
23:15:0012.90 °C999.40 hPa92.00 %11.60 °C4.14
23:00:0012.90 °C999.40 hPa92.00 %11.60 °C4.14
22:45:0012.90 °C999.70 hPa92.00 %11.60 °C4.14
22:30:0012.80 °C1000.10 hPa91.00 %183.60 km/hOSO6.60 °C11.40 °C3.63
22:15:0012.90 °C1000.90 hPa91.00 %11.50 °C3.11
22:00:0013.00 °C1000.70 hPa90.00 %11.40 °C3.11
21:45:0013.10 °C1000.80 hPa90.00 %11.50 °C2.59
21:30:0013.10 °C1000.90 hPa90.00 %11.50 °C2.59
21:15:0013.10 °C1000.80 hPa90.00 %11.50 °C2.59
21:00:0013.00 °C1000.80 hPa89.00 %11.20 °C2.59
20:45:0013.20 °C1000.70 hPa89.00 %11.40 °C2.59
20:30:0013.50 °C1000.90 hPa88.00 %11.60 °C2.59
20:15:0013.80 °C1000.80 hPa88.00 %11.80 °C2.59
20:00:0013.90 °C1000.90 hPa88.00 %11.90 °C2.59
19:45:0013.90 °C1001.00 hPa88.00 %11.90 °C2.59
19:30:0013.60 °C1001.20 hPa87.00 %11.50 °C2.59
19:15:0013.80 °C1001.00 hPa86.00 %11.50 °C2.59
19:00:0013.80 °C1001.40 hPa84.00 %11.10 °C2.59
18:45:0014.10 °C1001.40 hPa82.00 %11.10 °C1.04
18:30:0014.60 °C1001.40 hPa79.00 %11.00 °C1.04
18:15:0015.40 °C1001.80 hPa75.00 %11.00 °C0.52
18:00:0017.20 °C1001.20 hPa69.00 %11.50 °C 
17:45:0018.80 °C1001.30 hPa65.00 %12.10 °C 
17:30:0019.30 °C1001.50 hPa64.00 %12.30 °C 
17:15:0019.80 °C1001.70 hPa63.00 %12.60 °C 
17:00:0019.90 °C1001.70 hPa62.00 %12.40 °C 
16:45:0020.20 °C1001.80 hPa60.00 %12.20 °C 
16:30:0020.80 °C1001.60 hPa59.00 %12.50 °C 
16:15:0021.00 °C1001.80 hPa57.00 %12.20 °C 
16:00:0021.30 °C1002.00 hPa56.00 %12.20 °C 
15:45:0021.70 °C1001.90 hPa56.00 %12.50 °C 
15:30:0022.30 °C1001.80 hPa57.00 %13.40 °C 
15:15:0022.30 °C1001.70 hPa58.00 %13.60 °C 
15:00:0021.30 °C1001.70 hPa59.00 %13.00 °C 
14:45:0021.40 °C1001.70 hPa58.00 %12.80 °C 
14:30:0021.40 °C1001.70 hPa59.00 %13.10 °C 
14:15:0021.60 °C1002.00 hPa59.00 %13.20 °C 
14:00:0021.30 °C1002.20 hPa59.00 %13.00 °C 
13:45:0020.60 °C1002.20 hPa59.00 %12.30 °C 
13:30:0020.80 °C1002.30 hPa59.00 %12.50 °C 
13:15:0021.30 °C1002.30 hPa57.00 %12.40 °C 
13:00:0021.90 °C1002.20 hPa55.00 %12.50 °C 
12:45:0022.40 °C1002.00 hPa54.00 %12.60 °C 
12:30:0022.50 °C1002.10 hPa55.00 %13.00 °C 
12:15:0022.40 °C1001.90 hPa58.00 %13.70 °C 
12:00:0021.80 °C1001.90 hPa61.00 %13.90 °C 
11:45:0021.40 °C1002.00 hPa61.00 %13.60 °C 
11:30:0020.70 °C1002.00 hPa62.00 %13.20 °C 
11:15:0020.40 °C1001.90 hPa63.00 %13.10 °C 
11:00:0020.50 °C1002.20 hPa63.00 %13.20 °C 
10:45:0020.40 °C1002.30 hPa63.00 %13.10 °C 
10:30:0020.50 °C1002.20 hPa64.00 %13.50 °C 
10:15:0020.10 °C1002.20 hPa64.00 %13.10 °C 
10:00:0020.10 °C1002.00 hPa64.00 %13.10 °C 
09:45:0020.40 °C1002.10 hPa67.00 %14.10 °C 
09:30:0019.90 °C1002.10 hPa70.00 %14.30 °C 
09:15:0019.30 °C1002.00 hPa72.00 %14.10 °C 
09:00:0018.80 °C1001.80 hPa74.00 %14.10 °C 
08:45:0018.60 °C1001.90 hPa78.00 %14.70 °C 
08:30:0018.80 °C1001.90 hPa82.00 %15.70 °C 
08:15:0018.50 °C1002.10 hPa87.00 %16.30 °C 
08:00:0017.90 °C1002.00 hPa91.00 %16.40 °C 
07:45:0016.60 °C1001.90 hPa93.00 %15.50 °C 
07:30:0014.90 °C1001.90 hPa94.00 %13.90 °C 
07:15:0012.30 °C1001.90 hPa95.00 %11.50 °C 
07:00:008.80 °C1001.90 hPa94.00 %7.90 °C 
06:45:007.80 °C1002.00 hPa94.00 %6.90 °C 
06:30:007.30 °C1001.90 hPa94.00 %6.40 °C 
06:15:006.90 °C1002.00 hPa94.00 %6.00 °C 
06:00:006.30 °C1002.10 hPa94.00 %5.40 °C 
05:45:006.20 °C1002.30 hPa93.00 %5.20 °C 
05:30:006.10 °C1002.30 hPa93.00 %5.10 °C 
05:15:005.90 °C1002.20 hPa93.00 %4.90 °C 
05:00:006.30 °C1002.00 hPa93.00 %5.30 °C 
04:45:006.60 °C1002.00 hPa93.00 %5.60 °C 
04:30:006.70 °C1001.80 hPa93.00 %5.70 °C 
04:15:006.90 °C1001.90 hPa93.00 %5.80 °C 
04:00:006.60 °C1001.90 hPa93.00 %5.60 °C 
03:45:006.10 °C1001.90 hPa93.00 %5.10 °C 
03:30:005.70 °C1002.10 hPa92.00 %4.50 °C 
03:15:005.80 °C1002.30 hPa92.00 %4.60 °C 
03:00:005.90 °C1002.10 hPa92.00 %4.70 °C 
02:45:005.90 °C1001.90 hPa91.00 %4.50 °C 
02:30:005.90 °C1001.90 hPa91.00 %4.50 °C 
02:15:005.90 °C1002.20 hPa91.00 %4.50 °C 
02:00:006.10 °C1002.10 hPa91.00 %4.70 °C 
01:45:006.20 °C1002.30 hPa91.00 %4.80 °C 
01:30:006.40 °C1002.20 hPa91.00 %5.00 °C 
01:15:006.80 °C1002.20 hPa90.00 %5.30 °C 
01:00:006.90 °C1002.20 hPa90.00 %5.40 °C 
00:45:007.00 °C1002.30 hPa90.00 %5.50 °C 
00:30:007.20 °C1002.20 hPa90.00 %5.70 °C 
00:15:007.30 °C1002.20 hPa89.00 %5.60 °C 
00:00:007.60 °C1002.20 hPa89.00 %5.90 °C 

Permanenter Link zu dieser Seite: Wetter im Erzgebirge am 16.06.2016
Performance-Info: Die Erstellung der Seite / Statistik(en) / Tabelle(n) erforderte 5 Datenbankserver-Abfrage(n) und dauerte 124 Millisekunden. (Dieser Messwert ist von der Gesamt-Auslastung des Servers abhängig.)
Erzgebirge - Wetter | Erzgebirge - Wetter (Mobilgeräte) | Komplette Klimadatenbank